Time;durP1;ratioP1;P1;durP2;ratioP2;P2;SDS_P1;SDS_P2;PMS_P1;PMS_P2;Temp;Humidity;BMP_temperature;BMP_pressure;BME280_temperature;BME280_humidity;BME280_pressure;Samples;Min_cycle;Max_cycle;Signal;HPM_P1;HPM_P2
2022/02/28 00:00:26;;;;;;;6.68;3.47;;;;;;;-1.01;63.64;101253.22;5133876;27;20129;-43
2022/02/28 00:02:51;;;;;;;7.55;3.42;;;;;;;-1.03;63.58;101257.38;5133548;27;20183;-44
2022/02/28 00:05:17;;;;;;;4.55;2.72;;;;;;;-1.03;63.78;101260.81;5133623;27;20066;-42
2022/02/28 00:07:43;;;;;;;6.10;3.58;;;;;;;-0.99;63.92;101256.69;5134192;27;20054;-42
2022/02/28 00:10:10;;;;;;;6.43;3.63;;;;;;;-1.00;63.79;101254.97;5133724;27;20497;-43
2022/02/28 00:12:36;;;;;;;7.13;3.35;;;;;;;-1.01;63.79;101260.88;5131765;27;20410;-44
2022/02/28 00:15:05;;;;;;;4.68;2.60;;;;;;;-1.03;63.92;101268.47;5115505;27;20145;-44
2022/02/28 00:17:33;;;;;;;6.47;2.60;;;;;;;-1.05;64.06;101264.13;5133434;27;20120;-43
2022/02/28 00:20:00;;;;;;;5.60;2.58;;;;;;;-1.05;64.07;101267.56;5132672;27;20060;-43
2022/02/28 00:22:25;;;;;;;6.80;2.33;;;;;;;-1.24;64.14;101234.47;5131382;27;20064;-43
2022/02/28 00:24:51;;;;;;;6.55;2.70;;;;;;;-1.09;64.11;101270.78;5132485;27;20077;-43
2022/02/28 00:27:17;;;;;;;4.68;2.40;;;;;;;-1.08;64.33;101271.66;5131705;27;20396;-42
2022/02/28 00:29:43;;;;;;;3.78;2.58;;;;;;;-1.18;64.18;101261.91;5115281;27;20043;-43
2022/02/28 00:32:08;;;;;;;6.05;2.30;;;;;;;-1.12;64.22;101274.91;5095370;27;20142;-44
2022/02/28 00:34:34;;;;;;;5.57;2.22;;;;;;;-1.16;64.63;101275.63;5115224;27;20043;-43
2022/02/28 00:37:00;;;;;;;7.30;2.00;;;;;;;-1.18;64.58;101275.56;5114291;27;20051;-43
2022/02/28 00:39:28;;;;;;;6.63;2.10;;;;;;;-1.17;64.87;101274.75;5095499;28;20495;-43
2022/02/28 00:41:53;;;;;;;4.22;1.88;;;;;;;-1.19;64.76;101271.25;5113040;28;20093;-42
2022/02/28 00:44:19;;;;;;;7.35;2.00;;;;;;;-1.21;64.67;101277.13;5130391;27;20058;-42
2022/02/28 00:46:44;;;;;;;3.20;1.90;;;;;;;-1.24;64.55;101277.00;5133108;27;20058;-42
2022/02/28 00:49:10;;;;;;;5.70;2.20;;;;;;;-1.29;64.66;101272.59;5114661;27;20039;-42
2022/02/28 00:51:36;;;;;;;5.63;2.20;;;;;;;-1.30;64.83;101280.16;5115009;27;20046;-42
2022/02/28 00:54:02;;;;;;;4.80;2.10;;;;;;;-1.32;65.14;101267.38;5132644;27;20130;-42
2022/02/28 00:56:28;;;;;;;8.60;2.28;;;;;;;-1.35;65.06;101269.78;5133017;27;20043;-42
2022/02/28 00:58:54;;;;;;;12.45;2.50;;;;;;;-1.35;65.05;101266.38;5133052;27;20035;-42
2022/02/28 01:01:19;;;;;;;12.50;3.03;;;;;;;-1.36;65.21;101270.59;5131623;27;20054;-42
2022/02/28 01:03:46;;;;;;;10.25;2.78;;;;;;;-1.38;65.59;101264.59;5132724;27;20090;-42
2022/02/28 01:06:12;;;;;;;5.20;2.20;;;;;;;-1.38;65.13;101263.72;5110195;28;20043;-43
2022/02/28 01:08:39;;;;;;;5.28;2.20;;;;;;;-1.58;65.18;101237.44;5112555;28;20100;-43
2022/02/28 01:11:06;;;;;;;4.75;2.30;;;;;;;-1.44;65.19;101263.47;5128399;27;20043;-43
2022/02/28 01:13:32;;;;;;;6.00;2.53;;;;;;;-1.54;65.28;101251.16;5097103;27;20058;-42
2022/02/28 01:15:58;;;;;;;4.30;1.95;;;;;;;-1.46;65.22;101265.94;5114387;27;20095;-43
2022/02/28 01:18:23;;;;;;;8.23;2.03;;;;;;;-1.47;65.33;101266.78;5113874;27;20039;-43
2022/02/28 01:20:51;;;;;;;6.28;2.70;;;;;;;-1.47;65.04;101264.25;5131096;27;20112;-43
2022/02/28 01:23:17;;;;;;;3.25;2.17;;;;;;;-1.48;65.39;101262.50;5131969;27;20493;-43
2022/02/28 01:25:43;;;;;;;3.65;2.15;;;;;;;-1.64;65.35;101233.78;5132890;27;20038;-42
2022/02/28 01:28:10;;;;;;;4.15;2.25;;;;;;;-1.51;65.25;101253.81;5132926;27;20045;-43
2022/02/28 01:30:36;;;;;;;5.60;2.20;;;;;;;-1.51;65.49;101252.16;5132377;27;20067;-43
2022/02/28 01:33:02;;;;;;;9.27;2.95;;;;;;;-1.61;65.40;101236.44;5083394;28;20132;-43
2022/02/28 01:35:28;;;;;;;6.72;2.35;;;;;;;-1.54;65.50;101258.81;5112019;27;20043;-43
2022/02/28 01:37:54;;;;;;;5.97;2.25;;;;;;;-1.63;65.47;101240.63;5132555;27;20043;-43
2022/02/28 01:40:20;;;;;;;4.50;2.10;;;;;;;-1.54;65.30;101252.03;5128721;27;20066;-43
2022/02/28 01:42:46;;;;;;;5.55;2.20;;;;;;;-1.55;65.55;101252.84;5113644;27;20035;-44
2022/02/28 01:45:15;;;;;;;6.43;2.38;;;;;;;-1.56;65.71;101253.66;5113401;27;20038;-42
2022/02/28 01:47:41;;;;;;;4.13;2.20;;;;;;;-1.58;65.74;101247.63;5113632;27;20069;-43
2022/02/28 01:50:08;;;;;;;4.22;2.42;;;;;;;-1.57;65.70;101234.06;5130827;27;20089;-44
2022/02/28 01:52:33;;;;;;;3.80;2.10;;;;;;;-1.67;65.76;101220.91;5092946;28;20043;-44
2022/02/28 01:55:00;;;;;;;5.88;2.55;;;;;;;-1.60;65.95;101235.63;5131167;27;20070;-44
2022/02/28 01:57:26;;;;;;;5.65;2.42;;;;;;;-1.61;65.82;101234.75;5131058;27;20039;-41
2022/02/28 01:59:51;;;;;;;4.78;2.47;;;;;;;-1.61;65.89;101241.53;5113876;27;20494;-43
2022/02/28 02:02:18;;;;;;;10.10;3.17;;;;;;;-1.76;65.95;101208.66;5095879;27;20047;-43
2022/02/28 02:04:44;;;;;;;9.65;3.45;;;;;;;-1.65;65.85;101243.09;5130398;27;20514;-43
2022/02/28 02:07:10;;;;;;;5.20;2.67;;;;;;;-1.77;66.15;101223.06;5093265;28;20051;-43
2022/02/28 02:09:36;;;;;;;4.88;2.97;;;;;;;-1.68;66.15;101237.00;5093270;28;20044;-44
2022/02/28 02:12:04;;;;;;;11.48;5.18;;;;;;;-1.68;66.09;101237.00;5122280;27;20039;-43
2022/02/28 02:14:34;;;;;;;5.13;2.58;;;;;;;-1.69;66.29;101237.81;5113212;28;20034;-44
2022/02/28 02:17:00;;;;;;;7.00;3.50;;;;;;;-1.72;66.35;101236.88;5113290;28;20047;-43
2022/02/28 02:19:26;;;;;;;8.55;3.10;;;;;;;-1.70;66.21;101236.94;5110234;28;20200;-44
2022/02/28 02:21:52;;;;;;;8.00;2.70;;;;;;;-1.70;66.09;101244.59;5092990;28;20071;-43
2022/02/28 02:24:18;;;;;;;6.32;2.65;;;;;;;-1.78;66.44;101226.44;5111158;28;20039;-43
2022/02/28 02:26:44;;;;;;;7.32;2.60;;;;;;;-1.67;66.51;101238.75;5124880;28;20057;-43
2022/02/28 02:29:09;;;;;;;6.60;3.20;;;;;;;-1.63;65.89;101238.06;5113430;28;20502;-43
2022/02/28 02:31:35;;;;;;;5.57;3.05;;;;;;;-1.61;66.19;101236.44;5112807;28;20506;-43
2022/02/28 02:34:01;;;;;;;9.90;3.10;;;;;;;-1.73;66.07;101209.63;5131707;28;20027;-43
2022/02/28 02:36:28;;;;;;;7.18;3.13;;;;;;;-1.68;66.56;101219.16;5132632;27;20127;-43
2022/02/28 02:38:54;;;;;;;7.15;3.15;;;;;;;-1.60;66.54;101241.59;5100150;27;20043;-43
2022/02/28 02:41:20;;;;;;;5.93;3.17;;;;;;;-1.62;66.30;101248.31;5117203;27;20043;-43
2022/02/28 02:43:46;;;;;;;10.60;3.40;;;;;;;-1.62;66.38;101253.41;5117690;27;20067;-42
2022/02/28 02:46:12;;;;;;;9.63;3.58;;;;;;;-1.65;66.38;101248.19;5117100;27;20039;-43
2022/02/28 02:48:38;;;;;;;8.98;3.30;;;;;;;-1.66;66.40;101250.69;5116927;27;20108;-44
2022/02/28 02:51:12;;;;;;;7.95;4.00;;;;;;;-1.68;66.77;101245.53;5117186;27;20054;-43
2022/02/28 02:53:40;;;;;;;9.43;4.03;;;;;;;-1.62;66.83;101244.91;5134608;27;20066;-43
2022/02/28 02:56:06;;;;;;;9.50;4.22;;;;;;;-1.59;66.67;101247.56;5133970;27;20051;-43
2022/02/28 02:58:34;;;;;;;7.32;3.03;;;;;;;-1.60;66.83;101246.69;5133825;27;20054;-43
2022/02/28 03:01:01;;;;;;;5.57;2.80;;;;;;;-1.61;66.44;101246.63;5116930;27;20038;-42
2022/02/28 03:03:31;;;;;;;7.70;2.92;;;;;;;-1.61;66.70;101252.59;5116804;27;20053;-44
2022/02/28 03:05:58;;;;;;;4.50;2.10;;;;;;;-1.63;66.63;101253.38;5116616;27;20043;-44
2022/02/28 03:08:25;;;;;;;6.05;2.25;;;;;;;-1.65;66.60;101255.84;5133946;27;20051;-43
2022/02/28 03:10:52;;;;;;;5.05;2.25;;;;;;;-1.66;66.81;101256.66;5133898;27;20035;-43
2022/02/28 03:13:18;;;;;;;7.38;2.70;;;;;;;-1.77;66.55;101235.81;5116756;27;20042;-48
2022/02/28 03:15:44;;;;;;;4.88;2.15;;;;;;;-1.66;66.62;101251.53;5133722;27;20140;-44
2022/02/28 03:18:14;;;;;;;4.57;1.90;;;;;;;-1.65;66.60;101254.97;5116805;27;20517;-44
2022/02/28 03:20:39;;;;;;;6.63;2.70;;;;;;;-1.67;66.34;101254.91;5114301;27;20126;-43
2022/02/28 03:23:05;;;;;;;6.53;2.28;;;;;;;-1.69;66.53;101250.56;5098823;27;20059;-42
2022/02/28 03:25:31;;;;;;;3.70;2.00;;;;;;;-1.68;66.74;101252.31;5099572;27;20472;-42
2022/02/28 03:28:01;;;;;;;3.58;2.05;;;;;;;-1.77;66.67;101240.91;5100048;27;20035;-43
2022/02/28 03:30:28;;;;;;;6.43;2.70;;;;;;;-1.83;66.83;101243.22;5133231;27;20061;-43
2022/02/28 03:32:55;;;;;;;5.97;2.97;;;;;;;-1.76;66.65;101260.50;5116056;27;20095;-44
2022/02/28 03:35:21;;;;;;;5.38;2.42;;;;;;;-1.78;66.62;101257.03;5116115;27;20039;-44
2022/02/28 03:37:47;;;;;;;4.28;2.60;;;;;;;-1.79;66.70;101265.50;5116549;27;20154;-43
2022/02/28 03:40:13;;;;;;;6.32;2.55;;;;;;;-1.78;66.52;101264.66;5134646;27;20050;-43
2022/02/28 03:42:40;;;;;;;5.50;2.40;;;;;;;-1.86;66.74;101258.41;5133293;27;20232;-42
2022/02/28 03:45:07;;;;;;;4.75;2.40;;;;;;;-1.81;66.88;101271.34;5115698;27;20035;-43
2022/02/28 03:47:33;;;;;;;6.30;2.20;;;;;;;-1.82;66.64;101270.47;5097337;27;20035;-44
2022/02/28 03:50:31;;;;;;;6.05;2.97;;;;;;;-1.83;66.86;101271.25;5086326;27;20047;-43
2022/02/28 03:52:57;;;;;;;5.57;2.38;;;;;;;-1.93;67.12;101253.84;5116027;27;20091;-42
2022/02/28 03:55:27;;;;;;;12.93;3.30;;;;;;;-1.82;66.90;101275.56;5115769;27;20035;-44
2022/02/28 03:57:54;;;;;;;6.07;2.53;;;;;;;-1.83;66.72;101281.47;5133007;27;20066;-43
2022/02/28 04:00:25;;;;;;;7.15;2.92;;;;;;;-1.84;66.68;101274.66;5133044;27;20130;-44
2022/02/28 04:02:51;;;;;;;5.13;2.28;;;;;;;-1.84;66.83;101274.66;5132720;27;20479;-44
2022/02/28 04:05:18;;;;;;;4.80;2.33;;;;;;;-1.83;66.84;101278.91;5115011;27;20047;-44
2022/02/28 04:07:44;;;;;;;7.40;2.80;;;;;;;-1.82;66.77;101278.09;5132987;27;20092;-45
2022/02/28 04:10:10;;;;;;;9.02;2.65;;;;;;;-1.81;66.68;101274.75;5132885;27;20103;-43
2022/02/28 04:12:39;;;;;;;6.60;2.97;;;;;;;-1.81;66.76;101282.41;5131431;27;20059;-43
2022/02/28 04:15:05;;;;;;;12.32;3.28;;;;;;;-1.92;66.66;101267.47;5132376;27;20035;-45
2022/02/28 04:17:31;;;;;;;7.68;3.58;;;;;;;-2.00;66.79;101251.00;5115471;27;20483;-44
2022/02/28 04:20:16;;;;;;;8.93;3.92;;;;;;;-1.84;66.70;101287.38;5113447;27;20426;-43
2022/02/28 04:22:42;;;;;;;7.35;3.47;;;;;;;-1.81;66.63;101289.19;5132526;27;20554;-43
2022/02/28 04:25:08;;;;;;;5.93;2.85;;;;;;;-1.82;66.57;101290.84;5098609;27;20074;-43
2022/02/28 04:27:34;;;;;;;6.80;3.17;;;;;;;-1.81;66.68;101290.03;5098540;27;20123;-45
2022/02/28 04:30:04;;;;;;;6.88;3.53;;;;;;;-1.80;66.59;101296.03;5113757;27;20168;-43
2022/02/28 04:32:30;;;;;;;5.70;2.70;;;;;;;-1.78;66.41;101296.97;5114881;27;20083;-43
2022/02/28 04:35:02;;;;;;;6.35;3.00;;;;;;;-1.78;66.50;101296.97;5131841;27;20414;-43
2022/02/28 04:37:31;;;;;;;9.23;3.70;;;;;;;-1.89;66.63;101276.13;5094854;27;20430;-43
2022/02/28 04:39:57;;;;;;;4.78;2.70;;;;;;;-1.78;66.44;101292.72;5132073;27;20042;-42
2022/02/28 04:42:23;;;;;;;5.75;2.72;;;;;;;-1.73;66.85;101300.56;5133666;27;20053;-43
2022/02/28 04:44:50;;;;;;;10.48;3.05;;;;;;;-1.72;66.23;101297.19;5083779;28;20035;-43
2022/02/28 04:47:16;;;;;;;4.43;2.58;;;;;;;-1.71;66.21;101298.94;5113783;27;20049;-42
2022/02/28 04:49:42;;;;;;;9.43;3.50;;;;;;;-1.81;66.64;101286.63;5138156;27;20126;-41
2022/02/28 04:52:08;;;;;;;6.22;2.80;;;;;;;-1.71;66.14;101292.16;5101115;27;20614;-45
2022/02/28 04:54:35;;;;;;;14.23;4.03;;;;;;;-1.59;65.86;101296.88;5127825;27;20042;-45
2022/02/28 04:57:01;;;;;;;4.60;2.70;;;;;;;-1.56;65.71;101311.44;5117144;27;20051;-44
2022/02/28 04:59:28;;;;;;;8.43;3.13;;;;;;;-1.57;65.66;101304.63;5113908;27;20124;-44
2022/02/28 05:01:56;;;;;;;5.90;2.70;;;;;;;-1.52;65.68;101306.53;5129533;27;20047;-45
2022/02/28 05:04:42;;;;;;;8.68;2.95;;;;;;;-1.48;65.66;101300.75;5121594;27;20391;-46
2022/02/28 05:07:08;;;;;;;8.55;3.45;;;;;;;-1.42;65.45;101305.22;5123209;27;20137;-44
2022/02/28 05:09:34;;;;;;;9.70;4.88;;;;;;;-1.42;65.28;101301.00;5120172;27;20118;-45
2022/02/28 05:12:00;;;;;;;8.75;4.10;;;;;;;-1.34;65.26;101306.38;5102811;27;20089;-46
2022/02/28 05:14:26;;;;;;;9.13;3.80;;;;;;;-1.30;65.05;101309.09;5137841;27;20037;-44
2022/02/28 05:16:53;;;;;;;8.73;3.53;;;;;;;-1.24;65.15;101308.47;5123235;27;20078;-45
2022/02/28 05:19:20;;;;;;;6.30;3.00;;;;;;;-1.17;65.02;101307.91;5103181;27;20043;-43
2022/02/28 05:21:46;;;;;;;8.95;3.63;;;;;;;-1.12;64.89;101310.66;5110351;27;20106;-48
2022/02/28 05:24:11;;;;;;;10.02;3.45;;;;;;;-1.05;64.29;101307.53;5134146;27;20078;-45
2022/02/28 05:26:38;;;;;;;11.25;3.80;;;;;;;-0.96;64.58;101315.53;5125523;27;20074;-46
2022/02/28 05:29:04;;;;;;;11.85;3.92;;;;;;;-0.87;64.15;101313.31;5112624;27;20047;-45
2022/02/28 05:31:31;;;;;;;10.75;4.13;;;;;;;-0.77;63.80;101323.06;5113902;27;20114;-49
2022/02/28 05:34:23;;;;;;;9.05;4.18;;;;;;;-0.63;63.32;101319.31;5144377;27;20042;-43
2022/02/28 05:36:49;;;;;;;6.75;4.35;;;;;;;-0.54;63.19;101318.81;5095319;27;20043;-43
2022/02/28 05:39:37;;;;;;;15.63;4.82;;;;;;;-0.38;63.21;101317.69;5116753;27;20046;-46
2022/02/28 05:42:04;;;;;;;12.18;4.45;;;;;;;-0.20;62.50;101319.19;5130845;27;20454;-46
2022/02/28 05:44:32;;;;;;;12.23;4.60;;;;;;;-0.02;62.04;101319.84;5130412;27;20459;-45
2022/02/28 05:46:58;;;;;;;11.98;4.22;;;;;;;0.43;61.18;101327.28;5113115;27;20042;-45
2022/02/28 05:49:30;;;;;;;10.18;5.30;;;;;;;1.16;59.42;101324.47;5139137;27;20035;-45
2022/02/28 05:51:56;;;;;;;7.15;3.95;;;;;;;1.87;57.54;101317.97;5103521;27;20076;-45
2022/02/28 05:54:22;;;;;;;16.05;4.70;;;;;;;2.51;55.90;101320.50;5140019;27;20035;-46
2022/02/28 05:56:47;;;;;;;12.18;4.45;;;;;;;3.07;54.00;101315.78;5140176;27;20050;-46
2022/02/28 05:59:13;;;;;;;9.98;4.60;;;;;;;3.78;52.62;101320.72;5118601;27;20035;-45
2022/02/28 06:01:39;;;;;;;7.90;4.28;;;;;;;4.43;50.77;101320.16;5113255;27;20039;-50
2022/02/28 06:04:05;;;;;;;12.48;4.20;;;;;;;5.05;49.52;101319.44;5131434;27;20057;-46
2022/02/28 06:06:30;;;;;;;19.73;4.40;;;;;;;5.58;48.82;101319.28;5115515;27;20046;-48
2022/02/28 06:08:56;;;;;;;15.60;4.38;;;;;;;6.05;46.86;101325.00;5122607;27;20031;-52
2022/02/28 06:11:22;;;;;;;11.70;4.35;;;;;;;6.49;45.79;101324.56;5131148;27;20038;-48
2022/02/28 06:13:48;;;;;;;12.43;4.03;;;;;;;6.92;44.89;101325.72;5131550;27;20494;-50
2022/02/28 06:16:13;;;;;;;11.05;3.95;;;;;;;7.36;43.86;101321.69;5131240;27;20047;-48
2022/02/28 06:18:40;;;;;;;10.15;3.90;;;;;;;7.81;42.95;101320.13;5131662;27;20035;-48
2022/02/28 06:21:05;;;;;;;9.32;3.55;;;;;;;8.26;42.04;101328.03;5112706;28;20051;-47
2022/02/28 06:23:31;;;;;;;11.05;4.07;;;;;;;8.67;41.03;101325.47;5131005;27;20038;-50
2022/02/28 06:25:57;;;;;;;7.30;3.63;;;;;;;8.97;39.93;101326.31;5131421;27;20039;-46
2022/02/28 06:28:25;;;;;;;11.73;3.47;;;;;;;9.21;39.18;101314.13;5131830;28;20050;-50
2022/02/28 06:30:51;;;;;;;13.60;4.80;;;;;;;9.69;38.37;101326.09;5131469;28;20137;-51
2022/02/28 06:33:17;;;;;;;11.43;3.70;;;;;;;10.13;37.72;101323.25;5129776;28;20047;-48
2022/02/28 06:35:48;;;;;;;10.82;4.47;;;;;;;10.57;37.54;101325.56;5129581;27;20099;-47
2022/02/28 06:38:17;;;;;;;9.98;4.20;;;;;;;11.02;36.40;101339.03;5129560;28;20403;-47
2022/02/28 06:40:46;;;;;;;9.65;4.00;;;;;;;11.40;35.46;101336.06;5125443;27;20039;-47
2022/02/28 06:43:13;;;;;;;11.18;4.10;;;;;;;11.68;34.13;101331.34;5114672;27;20051;-50
2022/02/28 06:45:39;;;;;;;12.60;4.30;;;;;;;11.91;34.23;101318.06;5138055;27;20506;-47
2022/02/28 06:48:06;;;;;;;5.95;3.53;;;;;;;12.31;33.55;101337.47;5141980;27;20099;-48
2022/02/28 06:50:32;;;;;;;7.70;3.65;;;;;;;12.58;33.07;101330.97;5136980;27;20039;-49
2022/02/28 06:52:57;;;;;;;8.02;4.13;;;;;;;12.87;32.24;101322.66;5130839;27;20047;-50
2022/02/28 06:55:23;;;;;;;10.45;4.40;;;;;;;13.14;31.63;101325.63;5132493;27;20043;-50
2022/02/28 06:57:49;;;;;;;7.97;4.60;;;;;;;13.38;31.13;101328.69;5113840;28;20079;-49
2022/02/28 07:00:15;;;;;;;12.23;4.88;;;;;;;13.54;30.62;101315.28;5130931;28;20138;-49
2022/02/28 07:03:01;;;;;;;9.77;3.55;;;;;;;13.69;30.32;101319.34;5129790;27;20070;-51
2022/02/28 07:05:27;;;;;;;11.63;4.10;;;;;;;13.92;29.84;101319.69;5133825;27;20133;-51
2022/02/28 07:07:53;;;;;;;14.18;4.40;;;;;;;14.07;29.70;101323.75;5133912;27;20039;-48
2022/02/28 07:10:18;;;;;;;9.00;4.65;;;;;;;14.29;29.11;101313.63;5112553;28;20043;-49
2022/02/28 07:12:46;;;;;;;12.38;5.10;;;;;;;14.55;28.69;101315.66;5114748;27;20134;-48
2022/02/28 07:15:12;;;;;;;10.88;4.00;;;;;;;14.80;28.53;101309.78;5131273;28;20551;-51
2022/02/28 07:17:38;;;;;;;11.45;4.05;;;;;;;15.06;28.30;101302.97;5112758;28;20042;-47
2022/02/28 07:20:04;;;;;;;10.07;3.63;;;;;;;15.31;27.56;101319.75;5111489;28;20051;-50
2022/02/28 07:22:30;;;;;;;8.27;4.00;;;;;;;15.38;27.30;101296.84;5112730;27;20043;-47
2022/02/28 07:24:55;;;;;;;11.02;4.38;;;;;;;15.73;26.78;101314.22;5131957;27;20027;-50
2022/02/28 07:27:21;;;;;;;9.75;4.32;;;;;;;15.84;26.95;101307.75;5115529;27;20039;-47
2022/02/28 07:29:47;;;;;;;12.45;4.18;;;;;;;16.02;26.24;101308.94;5134118;27;20049;-47
2022/02/28 07:32:13;;;;;;;9.13;4.00;;;;;;;16.09;26.37;101308.72;5134074;27;20042;-48
2022/02/28 07:34:38;;;;;;;9.98;4.10;;;;;;;16.22;26.17;101303.94;5132314;27;20066;-49
2022/02/28 07:37:04;;;;;;;12.55;4.53;;;;;;;16.71;26.18;101308.47;5134461;27;20038;-46
2022/02/28 07:39:31;;;;;;;10.80;4.53;;;;;;;17.08;25.32;101294.94;5137385;27;20597;-50
2022/02/28 07:42:00;;;;;;;12.55;4.20;;;;;;;17.39;25.01;101310.44;5116111;27;20042;-49
2022/02/28 07:44:26;;;;;;;9.10;4.17;;;;;;;17.89;24.64;101310.38;5115458;27;20031;-42
2022/02/28 07:46:51;;;;;;;10.60;3.90;;;;;;;18.18;23.74;101313.56;5140832;27;20058;-50
2022/02/28 07:49:17;;;;;;;14.63;4.80;;;;;;;18.34;23.52;101308.56;5115696;27;20043;-49
2022/02/28 07:51:43;;;;;;;7.90;3.20;;;;;;;18.15;23.77;101303.19;5115844;27;20042;-51
2022/02/28 07:54:08;;;;;;;7.18;3.35;;;;;;;18.16;23.88;101314.56;5131380;27;20070;-48
2022/02/28 07:56:34;;;;;;;9.63;3.35;;;;;;;18.27;23.71;101308.84;5128665;27;20047;-50
2022/02/28 07:59:00;;;;;;;9.43;3.90;;;;;;;18.10;23.46;101288.47;5095815;27;20126;-49
2022/02/28 08:01:26;;;;;;;12.23;4.50;;;;;;;18.07;23.88;101307.00;5114545;27;20050;-48
2022/02/28 08:03:51;;;;;;;6.93;3.35;;;;;;;18.32;23.58;101310.38;5115232;27;20043;-47
2022/02/28 08:06:17;;;;;;;8.32;3.33;;;;;;;18.53;23.10;101301.59;5115249;27;20047;-49
2022/02/28 08:08:43;;;;;;;11.90;5.63;;;;;;;18.84;22.77;101311.75;5133623;27;20068;-50
2022/02/28 08:11:08;;;;;;;13.15;3.63;;;;;;;18.85;22.61;101316.09;5133919;27;20039;-49
2022/02/28 08:13:34;;;;;;;14.27;3.72;;;;;;;18.90;22.59;101314.13;5115563;27;20035;-51
2022/02/28 08:16:01;;;;;;;9.27;3.78;;;;;;;18.58;22.54;101317.25;5133811;27;20459;-50
2022/02/28 08:18:26;;;;;;;8.23;3.20;;;;;;;18.49;22.81;101312.34;5115026;27;20037;-51
2022/02/28 08:20:52;;;;;;;7.43;3.38;;;;;;;18.67;22.70;101313.41;5133141;27;20043;-49
2022/02/28 08:23:18;;;;;;;11.35;3.00;;;;;;;18.79;22.33;101303.19;5114680;27;20426;-50
2022/02/28 08:25:45;;;;;;;6.43;3.00;;;;;;;19.05;22.24;101304.72;5114599;27;20043;-51
2022/02/28 08:28:14;;;;;;;6.63;2.55;;;;;;;19.18;22.12;101289.19;5133437;27;20045;-52
2022/02/28 08:30:40;;;;;;;4.88;2.65;;;;;;;19.32;21.97;101295.56;5133202;27;20529;-50
2022/02/28 08:33:07;;;;;;;17.23;3.33;;;;;;;19.48;21.85;101295.75;5132564;27;20031;-48
2022/02/28 08:35:33;;;;;;;9.25;2.65;;;;;;;19.13;22.07;101304.38;5133375;27;20039;-49
2022/02/28 08:37:59;;;;;;;5.93;3.08;;;;;;;19.07;21.95;101281.75;5133544;27;20042;-49
2022/02/28 08:40:25;;;;;;;6.78;3.03;;;;;;;19.18;22.36;101305.88;5133289;27;20043;-49
2022/02/28 08:42:51;;;;;;;13.98;3.30;;;;;;;19.35;22.06;101298.09;5114652;27;20039;-51
2022/02/28 08:45:17;;;;;;;18.65;3.83;;;;;;;19.57;21.77;101298.00;5129454;27;20046;-50
2022/02/28 08:47:43;;;;;;;5.45;2.92;;;;;;;19.61;21.56;101296.06;5114561;27;20134;-50
2022/02/28 08:50:09;;;;;;;8.38;3.35;;;;;;;19.55;21.57;101299.84;5132694;27;20043;-47
2022/02/28 08:52:35;;;;;;;6.03;2.80;;;;;;;19.59;21.46;101306.69;5133281;27;20035;-48
2022/02/28 08:55:03;;;;;;;7.10;3.20;;;;;;;19.52;21.58;101299.13;5132560;27;20095;-50
2022/02/28 08:57:29;;;;;;;10.33;3.23;;;;;;;19.50;21.81;101299.19;5132687;27;20533;-48
2022/02/28 08:59:55;;;;;;;5.63;2.60;;;;;;;19.54;21.58;101298.13;5114757;27;20482;-53
2022/02/28 09:02:21;;;;;;;9.75;3.15;;;;;;;19.71;21.52;101292.94;5132986;27;20130;-53
2022/02/28 09:04:47;;;;;;;8.02;2.88;;;;;;;19.58;21.40;101281.22;5132030;27;20071;-48
2022/02/28 09:07:12;;;;;;;7.63;2.30;;;;;;;20.08;21.06;101276.22;5132588;27;20031;-51
2022/02/28 09:09:38;;;;;;;4.70;2.35;;;;;;;20.61;20.82;101280.66;5132823;27;20525;-50
2022/02/28 09:12:04;;;;;;;7.50;2.42;;;;;;;20.34;20.64;101287.31;5114404;27;20065;-48
2022/02/28 09:14:30;;;;;;;3.47;1.92;;;;;;;19.33;21.39;101267.41;5132108;27;20035;-51
2022/02/28 09:16:56;;;;;;;7.30;2.60;;;;;;;19.62;21.39;101277.53;5113987;27;20042;-52
2022/02/28 09:19:22;;;;;;;6.43;2.05;;;;;;;19.33;21.40;101278.81;5113737;27;20067;-48
2022/02/28 09:21:49;;;;;;;10.70;2.30;;;;;;;19.96;21.04;101274.16;5096923;27;20403;-50
2022/02/28 09:24:16;;;;;;;10.07;2.20;;;;;;;20.58;20.56;101286.09;5130697;27;20039;-54
2022/02/28 09:26:42;;;;;;;10.45;2.40;;;;;;;20.97;20.06;101288.50;5096708;27;20039;-49
2022/02/28 09:29:08;;;;;;;10.52;2.70;;;;;;;21.00;19.77;101281.25;5113707;27;20084;-52
2022/02/28 09:31:34;;;;;;;4.60;1.98;;;;;;;21.11;19.71;101273.63;5130991;27;20425;-51
2022/02/28 09:34:00;;;;;;;7.22;1.90;;;;;;;21.10;19.50;101276.34;5113290;27;20039;-51
2022/02/28 09:36:26;;;;;;;5.68;1.88;;;;;;;21.08;19.53;101276.44;5131816;27;20071;-51
2022/02/28 09:38:51;;;;;;;8.55;1.95;;;;;;;21.25;19.16;101272.91;5131758;27;20054;-49
2022/02/28 09:41:18;;;;;;;6.70;2.58;;;;;;;21.37;19.06;101269.63;5114295;27;20125;-49
2022/02/28 09:44:24;;;;;;;4.85;3.58;;;;;;;21.56;18.83;101272.97;5088992;28;20232;-50
2022/02/28 09:47:08;;;;;;;4.82;2.22;;;;;;;21.60;18.93;101265.75;5089286;28;20043;-51
2022/02/28 09:49:53;;;;;;;7.00;2.17;;;;;;;21.76;18.86;101258.66;5090864;28;20051;-49
2022/02/28 09:52:37;;;;;;;7.55;2.45;;;;;;;21.64;18.54;101258.47;5130944;27;20411;-48
2022/02/28 09:55:26;;;;;;;5.25;1.88;;;;;;;21.79;18.46;101247.03;5111140;27;20049;-51
2022/02/28 09:58:27;;;;;;;5.07;1.90;;;;;;;22.01;18.07;101233.47;5106945;27;20060;-51
2022/02/28 10:00:53;;;;;;;3.55;2.05;;;;;;;22.48;17.96;101258.06;5130234;27;20091;-52
2022/02/28 10:03:20;;;;;;;3.88;2.03;;;;;;;22.72;17.54;101258.44;5113205;27;20059;-47
2022/02/28 10:05:47;;;;;;;5.18;2.17;;;;;;;22.71;17.41;101267.34;5130320;27;20050;-49
2022/02/28 10:08:14;;;;;;;11.90;3.10;;;;;;;22.57;17.28;101261.97;5132042;27;20035;-50
2022/02/28 10:10:40;;;;;;;3.97;2.10;;;;;;;22.51;17.46;101259.66;5131888;27;20135;-51
2022/02/28 10:13:06;;;;;;;3.60;2.38;;;;;;;22.65;17.68;101259.72;5131751;27;20171;-53
2022/02/28 10:15:31;;;;;;;8.10;2.63;;;;;;;22.83;17.51;101242.72;5131584;27;20137;-53
2022/02/28 10:17:59;;;;;;;19.25;7.32;;;;;;;23.09;17.46;101254.41;5131430;27;20050;-48
2022/02/28 10:20:27;;;;;;;10.23;4.40;;;;;;;23.19;17.17;101253.75;5112617;28;20039;-50
2022/02/28 10:22:55;;;;;;;7.72;2.67;;;;;;;23.39;17.06;101249.88;5129837;27;20069;-52
2022/02/28 10:25:41;;;;;;;6.53;2.38;;;;;;;23.40;16.91;101250.69;5130956;27;20182;-48
2022/02/28 10:28:25;;;;;;;6.50;2.75;;;;;;;23.30;17.10;101244.25;5112371;28;20050;-52
2022/02/28 10:31:11;;;;;;;6.47;2.30;;;;;;;23.39;17.02;101231.28;5130547;28;20099;-48
2022/02/28 10:34:10;;;;;;;4.55;2.40;;;;;;;23.39;16.87;101249.03;5102878;28;20066;-51
2022/02/28 10:36:57;;;;;;;5.78;2.83;;;;;;;23.42;16.86;101243.50;5131035;28;20534;-49
2022/02/28 10:39:34;;;;;;;12.07;3.17;;;;;;;23.51;16.76;101245.59;5129656;28;20107;-49
2022/02/28 10:42:10;;;;;;;6.22;2.50;;;;;;;23.35;16.78;101252.78;5131220;28;20058;-48
2022/02/28 10:44:36;;;;;;;10.88;4.82;;;;;;;23.30;16.67;101246.91;5113106;28;20122;-50
2022/02/28 10:47:06;;;;;;;6.47;2.60;;;;;;;23.31;16.64;101245.97;5131413;28;20126;-51
2022/02/28 10:49:33;;;;;;;9.15;2.83;;;;;;;23.16;16.63;101240.69;5129700;28;20421;-51
2022/02/28 10:52:05;;;;;;;6.05;2.30;;;;;;;23.09;16.51;101236.69;5113123;28;20047;-49
2022/02/28 10:54:32;;;;;;;6.47;2.60;;;;;;;23.19;16.63;101232.50;5130415;28;20150;-48
2022/02/28 10:56:59;;;;;;;7.90;2.40;;;;;;;23.17;16.64;101239.75;5114634;27;20552;-47
2022/02/28 10:59:50;;;;;;;4.32;1.90;;;;;;;23.28;16.27;101231.13;5116576;27;20098;-53
2022/02/28 11:02:34;;;;;;;5.97;2.00;;;;;;;22.93;16.50;101233.28;5135135;27;20573;-54
2022/02/28 11:05:04;;;;;;;5.15;2.20;;;;;;;22.87;16.56;101231.00;5133884;27;20051;-51
2022/02/28 11:07:30;;;;;;;2.95;1.90;;;;;;;22.90;16.66;101230.81;5117126;27;20031;-53
2022/02/28 11:09:58;;;;;;;6.72;2.42;;;;;;;22.96;16.65;101227.78;5135009;27;20058;-51
2022/02/28 11:12:30;;;;;;;;;;;;;;;22.89;16.69;101226.44;5135130;27;20047;-49
2022/02/28 11:15:01;;;;;;;8.38;2.20;;;;;;;22.75;16.42;101229.09;5134716;27;19997;-49
2022/02/28 11:17:29;;;;;;;5.32;2.03;;;;;;;22.50;16.54;101223.53;5116300;27;20088;-48
2022/02/28 11:19:58;;;;;;;13.32;2.88;;;;;;;22.42;16.73;101221.31;5133254;27;20070;-51
2022/02/28 11:22:23;;;;;;;;;;;;;;;22.40;16.60;101223.19;5134964;27;20142;-47
2022/02/28 11:24:53;;;;;;;3.78;1.55;;;;;;;22.41;16.57;101211.66;5133947;27;19983;-50
2022/02/28 11:27:18;;;;;;;5.85;2.00;;;;;;;22.31;16.44;101207.84;5134502;27;20046;-53